sensor_id;sensor_type;location;lat;lon;timestamp;temperature;humidity
21805;DHT22;11064;47.102;15.452;2023-07-20T04:03:17;19.20;99.90
21805;DHT22;11064;47.102;15.452;2023-07-20T04:05:43;19.30;99.90
21805;DHT22;11064;47.102;15.452;2023-07-20T04:08:10;19.40;99.90
21805;DHT22;11064;47.102;15.452;2023-07-20T04:10:42;19.60;99.90
21805;DHT22;11064;47.102;15.452;2023-07-20T04:13:08;19.70;99.90
21805;DHT22;11064;47.102;15.452;2023-07-20T04:15:34;19.80;99.90
21805;DHT22;11064;47.102;15.452;2023-07-20T04:18:00;19.90;99.90
21805;DHT22;11064;47.102;15.452;2023-07-20T04:20:26;19.90;99.90
21805;DHT22;11064;47.102;15.452;2023-07-20T04:22:52;20.10;99.70
21805;DHT22;11064;47.102;15.452;2023-07-20T04:25:18;20.20;99.90
21805;DHT22;11064;47.102;15.452;2023-07-20T04:27:44;20.20;99.80
21805;DHT22;11064;47.102;15.452;2023-07-20T04:30:12;20.40;99.10
21805;DHT22;11064;47.102;15.452;2023-07-20T04:32:38;20.60;99.10
21805;DHT22;11064;47.102;15.452;2023-07-20T04:35:44;20.70;98.60
21805;DHT22;11064;47.102;15.452;2023-07-20T04:38:02;20.80;97.20
21805;DHT22;11064;47.102;15.452;2023-07-20T04:40:28;20.80;96.80
21805;DHT22;11064;47.102;15.452;2023-07-20T04:42:54;20.90;97.20
21805;DHT22;11064;47.102;15.452;2023-07-20T04:45:20;20.80;98.60
21805;DHT22;11064;47.102;15.452;2023-07-20T04:47:48;20.70;98.20
21805;DHT22;11064;47.102;15.452;2023-07-20T04:50:16;20.60;97.80
21805;DHT22;11064;47.102;15.452;2023-07-20T04:52:42;20.50;98.10
21805;DHT22;11064;47.102;15.452;2023-07-20T04:55:08;20.40;98.20
21805;DHT22;11064;47.102;15.452;2023-07-20T04:57:34;20.40;98.30
21805;DHT22;11064;47.102;15.452;2023-07-20T05:00:00;20.40;98.60
21805;DHT22;11064;47.102;15.452;2023-07-20T05:02:26;20.50;99.90
21805;DHT22;11064;47.102;15.452;2023-07-20T05:04:51;20.80;99.90
21805;DHT22;11064;47.102;15.452;2023-07-20T05:07:17;21.20;96.80
21805;DHT22;11064;47.102;15.452;2023-07-20T05:09:43;21.10;97.40
21805;DHT22;11064;47.102;15.452;2023-07-20T05:12:09;21.10;97.10
21805;DHT22;11064;47.102;15.452;2023-07-20T05:14:34;21.10;96.50
21805;DHT22;11064;47.102;15.452;2023-07-20T05:17:00;21.20;96.10
21805;DHT22;11064;47.102;15.452;2023-07-20T05:19:26;21.20;96.80
21805;DHT22;11064;47.102;15.452;2023-07-20T05:21:52;21.40;94.80
21805;DHT22;11064;47.102;15.452;2023-07-20T05:24:18;21.30;96.30
21805;DHT22;11064;47.102;15.452;2023-07-20T05:26:44;21.40;96.00
21805;DHT22;11064;47.102;15.452;2023-07-20T05:29:10;21.20;97.40
21805;DHT22;11064;47.102;15.452;2023-07-20T05:31:35;21.00;97.40
21805;DHT22;11064;47.102;15.452;2023-07-20T05:34:01;21.00;98.30
21805;DHT22;11064;47.102;15.452;2023-07-20T05:36:27;20.90;98.50
21805;DHT22;11064;47.102;15.452;2023-07-20T05:38:53;20.90;99.60
21805;DHT22;11064;47.102;15.452;2023-07-20T05:41:19;20.90;99.90
21805;DHT22;11064;47.102;15.452;2023-07-20T05:43:44;20.90;99.50
21805;DHT22;11064;47.102;15.452;2023-07-20T05:46:10;20.90;99.90
21805;DHT22;11064;47.102;15.452;2023-07-20T05:48:36;21.10;99.90
21805;DHT22;11064;47.102;15.452;2023-07-20T05:51:02;21.20;99.60
21805;DHT22;11064;47.102;15.452;2023-07-20T05:53:28;21.50;99.50
21805;DHT22;11064;47.102;15.452;2023-07-20T05:55:54;21.70;99.90
21805;DHT22;11064;47.102;15.452;2023-07-20T05:58:20;22.20;98.00
21805;DHT22;11064;47.102;15.452;2023-07-20T06:00:49;22.70;96.90
21805;DHT22;11064;47.102;15.452;2023-07-20T06:03:16;23.00;94.10
21805;DHT22;11064;47.102;15.452;2023-07-20T06:05:42;23.10;96.00
21805;DHT22;11064;47.102;15.452;2023-07-20T06:08:08;23.00;95.90
21805;DHT22;11064;47.102;15.452;2023-07-20T06:10:34;23.10;96.70
21805;DHT22;11064;47.102;15.452;2023-07-20T06:13:00;22.90;96.90
21805;DHT22;11064;47.102;15.452;2023-07-20T06:15:33;22.70;96.40
21805;DHT22;11064;47.102;15.452;2023-07-20T06:18:03;22.60;96.00
21805;DHT22;11064;47.102;15.452;2023-07-20T06:20:29;22.40;97.50
21805;DHT22;11064;47.102;15.452;2023-07-20T06:22:56;22.30;98.20
21805;DHT22;11064;47.102;15.452;2023-07-20T06:25:22;22.20;97.60
21805;DHT22;11064;47.102;15.452;2023-07-20T06:27:49;22.20;95.90
21805;DHT22;11064;47.102;15.452;2023-07-20T06:30:16;22.20;95.90
21805;DHT22;11064;47.102;15.452;2023-07-20T06:32:42;22.10;97.30
21805;DHT22;11064;47.102;15.452;2023-07-20T06:35:07;22.10;97.70
21805;DHT22;11064;47.102;15.452;2023-07-20T06:37:34;22.10;97.00
21805;DHT22;11064;47.102;15.452;2023-07-20T06:40:00;22.30;97.40
21805;DHT22;11064;47.102;15.452;2023-07-20T06:42:26;22.40;98.30
21805;DHT22;11064;47.102;15.452;2023-07-20T06:44:51;22.40;99.90
21805;DHT22;11064;47.102;15.452;2023-07-20T06:47:17;22.20;99.70
21805;DHT22;11064;47.102;15.452;2023-07-20T06:49:43;22.10;99.90
21805;DHT22;11064;47.102;15.452;2023-07-20T06:52:08;22.10;99.90
21805;DHT22;11064;47.102;15.452;2023-07-20T06:54:34;22.00;99.90
21805;DHT22;11064;47.102;15.452;2023-07-20T06:57:00;22.00;99.90
21805;DHT22;11064;47.102;15.452;2023-07-20T06:59:26;22.00;99.90
21805;DHT22;11064;47.102;15.452;2023-07-20T07:01:51;22.00;99.90
21805;DHT22;11064;47.102;15.452;2023-07-20T07:04:17;22.20;99.90
21805;DHT22;11064;47.102;15.452;2023-07-20T07:06:43;22.30;98.20
21805;DHT22;11064;47.102;15.452;2023-07-20T07:09:09;22.40;96.80
21805;DHT22;11064;47.102;15.452;2023-07-20T07:11:35;22.50;98.20
21805;DHT22;11064;47.102;15.452;2023-07-20T07:14:01;22.50;99.90
21805;DHT22;11064;47.102;15.452;2023-07-20T07:16:27;22.70;99.60
21805;DHT22;11064;47.102;15.452;2023-07-20T07:18:52;22.70;99.90
21805;DHT22;11064;47.102;15.452;2023-07-20T07:21:18;22.90;99.90
21805;DHT22;11064;47.102;15.452;2023-07-20T07:23:45;23.10;99.70
21805;DHT22;11064;47.102;15.452;2023-07-20T07:26:11;23.10;99.90
21805;DHT22;11064;47.102;15.452;2023-07-20T07:28:37;23.40;99.90
21805;DHT22;11064;47.102;15.452;2023-07-20T07:31:06;23.60;99.90
21805;DHT22;11064;47.102;15.452;2023-07-20T07:33:33;23.70;99.90
21805;DHT22;11064;47.102;15.452;2023-07-20T07:35:58;23.70;99.90
21805;DHT22;11064;47.102;15.452;2023-07-20T07:38:24;23.60;99.90
21805;DHT22;11064;47.102;15.452;2023-07-20T07:40:50;23.90;99.90
21805;DHT22;11064;47.102;15.452;2023-07-20T07:43:16;24.10;99.90
21805;DHT22;11064;47.102;15.452;2023-07-20T07:45:41;24.20;99.00
21805;DHT22;11064;47.102;15.452;2023-07-20T07:48:07;24.50;98.70
21805;DHT22;11064;47.102;15.452;2023-07-20T07:50:34;24.60;97.90
21805;DHT22;11064;47.102;15.452;2023-07-20T07:53:00;24.60;97.20
21805;DHT22;11064;47.102;15.452;2023-07-20T07:55:25;25.30;96.70
21805;DHT22;11064;47.102;15.452;2023-07-20T07:57:54;25.60;95.60
21805;DHT22;11064;47.102;15.452;2023-07-20T08:00:20;26.10;92.90
21805;DHT22;11064;47.102;15.452;2023-07-20T08:02:46;26.30;92.10
21805;DHT22;11064;47.102;15.452;2023-07-20T08:05:13;26.40;87.60
21805;DHT22;11064;47.102;15.452;2023-07-20T08:07:39;26.30;89.20
21805;DHT22;11064;47.102;15.452;2023-07-20T08:10:06;25.90;89.90
21805;DHT22;11064;47.102;15.452;2023-07-20T08:12:32;26.10;89.30
21805;DHT22;11064;47.102;15.452;2023-07-20T08:14:58;25.30;91.10
21805;DHT22;11064;47.102;15.452;2023-07-20T08:17:24;25.40;90.90
21805;DHT22;11064;47.102;15.452;2023-07-20T08:19:50;25.50;91.90
21805;DHT22;11064;47.102;15.452;2023-07-20T08:22:16;25.50;91.80
21805;DHT22;11064;47.102;15.452;2023-07-20T08:24:42;25.60;92.40
21805;DHT22;11064;47.102;15.452;2023-07-20T08:27:08;25.00;89.10
21805;DHT22;11064;47.102;15.452;2023-07-20T08:29:37;24.90;91.70
21805;DHT22;11064;47.102;15.452;2023-07-20T08:32:04;25.30;92.30
21805;DHT22;11064;47.102;15.452;2023-07-20T08:34:31;25.50;89.30
21805;DHT22;11064;47.102;15.452;2023-07-20T08:36:57;25.80;91.50
21805;DHT22;11064;47.102;15.452;2023-07-20T08:39:23;25.80;90.20
21805;DHT22;11064;47.102;15.452;2023-07-20T08:41:50;25.60;85.80
21805;DHT22;11064;47.102;15.452;2023-07-20T08:44:17;25.70;83.00
21805;DHT22;11064;47.102;15.452;2023-07-20T08:46:44;25.60;80.90
21805;DHT22;11064;47.102;15.452;2023-07-20T08:49:11;25.80;81.60
21805;DHT22;11064;47.102;15.452;2023-07-20T08:51:37;25.60;89.00
21805;DHT22;11064;47.102;15.452;2023-07-20T08:54:05;25.90;69.70
21805;DHT22;11064;47.102;15.452;2023-07-20T08:56:33;26.00;73.30
21805;DHT22;11064;47.102;15.452;2023-07-20T08:59:01;26.10;73.00
21805;DHT22;11064;47.102;15.452;2023-07-20T09:01:28;26.10;78.00
21805;DHT22;11064;47.102;15.452;2023-07-20T09:03:55;26.10;77.10
21805;DHT22;11064;47.102;15.452;2023-07-20T09:06:21;26.00;77.90
21805;DHT22;11064;47.102;15.452;2023-07-20T09:08:47;26.00;72.60
21805;DHT22;11064;47.102;15.452;2023-07-20T09:11:14;25.80;74.70
21805;DHT22;11064;47.102;15.452;2023-07-20T09:13:40;26.10;83.40
21805;DHT22;11064;47.102;15.452;2023-07-20T09:16:06;26.30;75.70
21805;DHT22;11064;47.102;15.452;2023-07-20T09:18:32;26.50;76.10
21805;DHT22;11064;47.102;15.452;2023-07-20T09:21:03;26.60;72.10
21805;DHT22;11064;47.102;15.452;2023-07-20T09:23:34;26.80;73.30
21805;DHT22;11064;47.102;15.452;2023-07-20T09:26:00;27.00;76.30
21805;DHT22;11064;47.102;15.452;2023-07-20T09:28:26;27.10;76.80
21805;DHT22;11064;47.102;15.452;2023-07-20T09:30:54;27.30;72.90
21805;DHT22;11064;47.102;15.452;2023-07-20T09:33:22;27.20;67.40
21805;DHT22;11064;47.102;15.452;2023-07-20T09:35:48;27.00;66.10
21805;DHT22;11064;47.102;15.452;2023-07-20T09:38:14;27.10;67.20
21805;DHT22;11064;47.102;15.452;2023-07-20T09:40:42;27.00;71.40
21805;DHT22;11064;47.102;15.452;2023-07-20T09:43:09;27.00;69.10
21805;DHT22;11064;47.102;15.452;2023-07-20T09:48:09;28.00;73.10
21805;DHT22;11064;47.102;15.452;2023-07-20T09:50:56;28.10;63.00
21805;DHT22;11064;47.102;15.452;2023-07-20T09:53:24;28.70;64.90
21805;DHT22;11064;47.102;15.452;2023-07-20T09:55:52;29.10;64.10
21805;DHT22;11064;47.102;15.452;2023-07-20T09:58:18;29.10;60.70
21805;DHT22;11064;47.102;15.452;2023-07-20T10:00:45;28.50;60.40
21805;DHT22;11064;47.102;15.452;2023-07-20T10:03:21;28.40;63.50
21805;DHT22;11064;47.102;15.452;2023-07-20T10:06:02;28.50;68.30
21805;DHT22;11064;47.102;15.452;2023-07-20T10:08:30;28.50;62.50
21805;DHT22;11064;47.102;15.452;2023-07-20T10:10:57;28.90;57.30
21805;DHT22;11064;47.102;15.452;2023-07-20T10:13:29;29.20;60.00
21805;DHT22;11064;47.102;15.452;2023-07-20T10:21:20;29.10;64.20
21805;DHT22;11064;47.102;15.452;2023-07-20T10:23:49;29.50;66.70
21805;DHT22;11064;47.102;15.452;2023-07-20T10:26:15;29.60;66.10
21805;DHT22;11064;47.102;15.452;2023-07-20T10:28:41;29.70;68.80
21805;DHT22;11064;47.102;15.452;2023-07-20T10:31:09;29.70;70.20
21805;DHT22;11064;47.102;15.452;2023-07-20T10:33:37;29.90;70.20
21805;DHT22;11064;47.102;15.452;2023-07-20T10:36:04;30.00;69.80
21805;DHT22;11064;47.102;15.452;2023-07-20T10:41:17;29.80;75.50
21805;DHT22;11064;47.102;15.452;2023-07-20T10:43:44;29.30;84.30
21805;DHT22;11064;47.102;15.452;2023-07-20T10:46:13;29.00;85.80
21805;DHT22;11064;47.102;15.452;2023-07-20T10:49:02;28.80;89.30
21805;DHT22;11064;47.102;15.452;2023-07-20T10:51:28;28.70;88.20
21805;DHT22;11064;47.102;15.452;2023-07-20T10:53:57;29.00;91.10
21805;DHT22;11064;47.102;15.452;2023-07-20T10:56:27;29.70;86.60
21805;DHT22;11064;47.102;15.452;2023-07-20T10:59:01;30.20;87.50
21805;DHT22;11064;47.102;15.452;2023-07-20T11:01:44;30.30;86.60
21805;DHT22;11064;47.102;15.452;2023-07-20T11:04:10;30.20;85.00
21805;DHT22;11064;47.102;15.452;2023-07-20T11:06:36;29.80;90.10
21805;DHT22;11064;47.102;15.452;2023-07-20T11:09:04;30.00;82.50
21805;DHT22;11064;47.102;15.452;2023-07-20T11:11:34;30.30;84.60
21805;DHT22;11064;47.102;15.452;2023-07-20T11:14:03;30.30;77.50
21805;DHT22;11064;47.102;15.452;2023-07-20T11:19:13;31.20;73.10
21805;DHT22;11064;47.102;15.452;2023-07-20T11:21:41;31.20;72.40
21805;DHT22;11064;47.102;15.452;2023-07-20T11:24:07;31.70;70.80
21805;DHT22;11064;47.102;15.452;2023-07-20T11:26:44;31.80;66.60
21805;DHT22;11064;47.102;15.452;2023-07-20T11:29:11;31.70;70.90
21805;DHT22;11064;47.102;15.452;2023-07-20T11:31:41;31.90;67.20
21805;DHT22;11064;47.102;15.452;2023-07-20T11:34:30;31.80;64.10
21805;DHT22;11064;47.102;15.452;2023-07-20T11:36:56;31.50;65.20
21805;DHT22;11064;47.102;15.452;2023-07-20T11:39:23;31.80;66.50
21805;DHT22;11064;47.102;15.452;2023-07-20T11:41:52;31.80;66.60
21805;DHT22;11064;47.102;15.452;2023-07-20T11:44:19;31.10;62.70
21805;DHT22;11064;47.102;15.452;2023-07-20T11:46:46;30.80;66.90
21805;DHT22;11064;47.102;15.452;2023-07-20T11:49:12;30.20;69.90
21805;DHT22;11064;47.102;15.452;2023-07-20T11:51:40;29.90;71.10
21805;DHT22;11064;47.102;15.452;2023-07-20T11:54:07;29.80;65.80
21805;DHT22;11064;47.102;15.452;2023-07-20T11:56:34;29.30;70.40
21805;DHT22;11064;47.102;15.452;2023-07-20T11:59:01;28.90;66.20
21805;DHT22;11064;47.102;15.452;2023-07-20T12:01:30;28.60;69.20
21805;DHT22;11064;47.102;15.452;2023-07-20T12:04:01;28.30;72.90
21805;DHT22;11064;47.102;15.452;2023-07-20T12:06:29;28.20;78.80
21805;DHT22;11064;47.102;15.452;2023-07-20T12:08:59;28.00;76.30
21805;DHT22;11064;47.102;15.452;2023-07-20T12:11:38;27.80;74.70
21805;DHT22;11064;47.102;15.452;2023-07-20T12:14:07;28.10;76.10
21805;DHT22;11064;47.102;15.452;2023-07-20T12:16:34;27.50;75.40
21805;DHT22;11064;47.102;15.452;2023-07-20T12:19:08;26.90;78.80
21805;DHT22;11064;47.102;15.452;2023-07-20T12:21:35;26.60;78.80
21805;DHT22;11064;47.102;15.452;2023-07-20T12:24:06;26.20;82.10
21805;DHT22;11064;47.102;15.452;2023-07-20T12:26:33;25.80;78.60
21805;DHT22;11064;47.102;15.452;2023-07-20T12:29:00;25.50;80.80
21805;DHT22;11064;47.102;15.452;2023-07-20T12:31:27;25.10;80.50
21805;DHT22;11064;47.102;15.452;2023-07-20T12:33:53;24.70;84.90
21805;DHT22;11064;47.102;15.452;2023-07-20T12:36:40;24.70;86.40
21805;DHT22;11064;47.102;15.452;2023-07-20T12:39:05;24.80;86.80
21805;DHT22;11064;47.102;15.452;2023-07-20T12:41:31;25.00;88.00
21805;DHT22;11064;47.102;15.452;2023-07-20T12:43:57;25.10;83.60
21805;DHT22;11064;47.102;15.452;2023-07-20T12:46:24;25.20;85.70
21805;DHT22;11064;47.102;15.452;2023-07-20T12:48:49;25.20;85.30
21805;DHT22;11064;47.102;15.452;2023-07-20T12:51:15;24.70;89.20
21805;DHT22;11064;47.102;15.452;2023-07-20T12:53:41;24.10;90.60
21805;DHT22;11064;47.102;15.452;2023-07-20T12:56:07;23.50;91.20
21805;DHT22;11064;47.102;15.452;2023-07-20T12:58:33;22.70;96.90
21805;DHT22;11064;47.102;15.452;2023-07-20T13:00:58;22.10;99.90
21805;DHT22;11064;47.102;15.452;2023-07-20T13:03:25;21.40;99.90
21805;DHT22;11064;47.102;15.452;2023-07-20T13:05:50;21.00;99.90
21805;DHT22;11064;47.102;15.452;2023-07-20T13:08:16;20.90;99.90
21805;DHT22;11064;47.102;15.452;2023-07-20T13:10:42;20.90;99.90
21805;DHT22;11064;47.102;15.452;2023-07-20T13:13:08;21.10;99.90
21805;DHT22;11064;47.102;15.452;2023-07-20T13:15:42;21.30;99.90
21805;DHT22;11064;47.102;15.452;2023-07-20T13:18:08;21.60;99.90
21805;DHT22;11064;47.102;15.452;2023-07-20T13:20:34;22.00;99.90
21805;DHT22;11064;47.102;15.452;2023-07-20T13:22:59;22.60;99.90
21805;DHT22;11064;47.102;15.452;2023-07-20T13:25:25;23.40;99.90
21805;DHT22;11064;47.102;15.452;2023-07-20T13:27:51;24.40;99.90
21805;DHT22;11064;47.102;15.452;2023-07-20T13:30:17;25.40;99.90
21805;DHT22;11064;47.102;15.452;2023-07-20T13:32:44;26.10;99.90
21805;DHT22;11064;47.102;15.452;2023-07-20T13:35:11;26.60;99.90
21805;DHT22;11064;47.102;15.452;2023-07-20T13:37:37;27.00;99.90
21805;DHT22;11064;47.102;15.452;2023-07-20T13:40:03;26.70;99.90
21805;DHT22;11064;47.102;15.452;2023-07-20T13:42:31;26.60;99.90
21805;DHT22;11064;47.102;15.452;2023-07-20T13:44:57;26.40;99.90
21805;DHT22;11064;47.102;15.452;2023-07-20T13:47:23;25.80;99.90
21805;DHT22;11064;47.102;15.452;2023-07-20T13:49:49;25.20;99.90
21805;DHT22;11064;47.102;15.452;2023-07-20T13:52:15;25.40;99.90
21805;DHT22;11064;47.102;15.452;2023-07-20T13:54:41;25.40;99.90
21805;DHT22;11064;47.102;15.452;2023-07-20T13:57:07;25.20;99.90
21805;DHT22;11064;47.102;15.452;2023-07-20T13:59:32;24.90;99.90
21805;DHT22;11064;47.102;15.452;2023-07-20T14:01:58;24.90;99.90
21805;DHT22;11064;47.102;15.452;2023-07-20T14:04:24;25.50;99.90
21805;DHT22;11064;47.102;15.452;2023-07-20T14:06:50;25.70;99.90
21805;DHT22;11064;47.102;15.452;2023-07-20T14:09:15;25.80;99.90
21805;DHT22;11064;47.102;15.452;2023-07-20T14:11:41;26.00;99.90
21805;DHT22;11064;47.102;15.452;2023-07-20T14:14:07;26.20;99.90
21805;DHT22;11064;47.102;15.452;2023-07-20T14:16:33;26.40;99.90
21805;DHT22;11064;47.102;15.452;2023-07-20T14:18:59;26.50;99.40
21805;DHT22;11064;47.102;15.452;2023-07-20T14:21:24;26.80;99.90
21805;DHT22;11064;47.102;15.452;2023-07-20T14:23:52;26.90;99.90
21805;DHT22;11064;47.102;15.452;2023-07-20T14:26:21;27.30;99.90
21805;DHT22;11064;47.102;15.452;2023-07-20T14:28:47;27.40;99.90
21805;DHT22;11064;47.102;15.452;2023-07-20T14:31:13;27.70;99.90
21805;DHT22;11064;47.102;15.452;2023-07-20T14:33:39;27.90;99.90
21805;DHT22;11064;47.102;15.452;2023-07-20T14:36:05;28.30;99.20
21805;DHT22;11064;47.102;15.452;2023-07-20T14:38:33;27.60;99.90
21805;DHT22;11064;47.102;15.452;2023-07-20T14:40:59;27.10;99.90
21805;DHT22;11064;47.102;15.452;2023-07-20T14:43:25;26.70;99.90
21805;DHT22;11064;47.102;15.452;2023-07-20T14:45:51;25.70;99.90
21805;DHT22;11064;47.102;15.452;2023-07-20T14:48:17;25.20;99.90
21805;DHT22;11064;47.102;15.452;2023-07-20T14:50:43;25.30;99.90
21805;DHT22;11064;47.102;15.452;2023-07-20T14:53:13;25.50;99.90
21805;DHT22;11064;47.102;15.452;2023-07-20T14:55:39;25.80;99.90
21805;DHT22;11064;47.102;15.452;2023-07-20T14:58:05;25.90;99.90
21805;DHT22;11064;47.102;15.452;2023-07-20T15:00:31;26.10;99.90
21805;DHT22;11064;47.102;15.452;2023-07-20T15:02:57;26.30;99.90
21805;DHT22;11064;47.102;15.452;2023-07-20T15:05:23;26.60;99.20
21805;DHT22;11064;47.102;15.452;2023-07-20T15:07:50;27.00;99.40
21805;DHT22;11064;47.102;15.452;2023-07-20T15:10:16;27.50;99.90
21805;DHT22;11064;47.102;15.452;2023-07-20T15:12:42;27.40;99.50
21805;DHT22;11064;47.102;15.452;2023-07-20T15:15:10;27.40;97.80
21805;DHT22;11064;47.102;15.452;2023-07-20T15:17:37;27.00;95.30
21805;DHT22;11064;47.102;15.452;2023-07-20T15:20:05;26.50;94.20
21805;DHT22;11064;47.102;15.452;2023-07-20T15:22:32;26.10;96.80
21805;DHT22;11064;47.102;15.452;2023-07-20T15:24:58;26.00;96.50
21805;DHT22;11064;47.102;15.452;2023-07-20T15:27:24;25.60;97.90
21805;DHT22;11064;47.102;15.452;2023-07-20T15:29:50;25.50;98.40
21805;DHT22;11064;47.102;15.452;2023-07-20T15:32:18;25.40;97.30
21805;DHT22;11064;47.102;15.452;2023-07-20T15:34:45;25.20;99.90
21805;DHT22;11064;47.102;15.452;2023-07-20T15:37:11;25.20;99.90
21805;DHT22;11064;47.102;15.452;2023-07-20T15:39:38;25.10;99.90
21805;DHT22;11064;47.102;15.452;2023-07-20T15:42:04;25.20;99.90
21805;DHT22;11064;47.102;15.452;2023-07-20T15:44:30;25.30;99.90
21805;DHT22;11064;47.102;15.452;2023-07-20T15:46:56;25.60;99.90
21805;DHT22;11064;47.102;15.452;2023-07-20T15:49:22;25.90;99.70
21805;DHT22;11064;47.102;15.452;2023-07-20T15:51:50;26.20;95.40
21805;DHT22;11064;47.102;15.452;2023-07-20T15:54:16;26.30;95.50
21805;DHT22;11064;47.102;15.452;2023-07-20T15:56:43;26.50;94.60
21805;DHT22;11064;47.102;15.452;2023-07-20T15:59:14;26.50;94.00
21805;DHT22;11064;47.102;15.452;2023-07-20T16:01:41;26.30;93.30
21805;DHT22;11064;47.102;15.452;2023-07-20T16:04:08;26.10;93.20
21805;DHT22;11064;47.102;15.452;2023-07-20T16:06:34;26.00;93.50
21805;DHT22;11064;47.102;15.452;2023-07-20T16:09:02;25.70;95.80
21805;DHT22;11064;47.102;15.452;2023-07-20T16:11:33;25.60;98.80
21805;DHT22;11064;47.102;15.452;2023-07-20T16:14:00;25.40;98.90
21805;DHT22;11064;47.102;15.452;2023-07-20T16:16:26;25.00;99.80
21805;DHT22;11064;47.102;15.452;2023-07-20T16:18:52;24.70;99.90
21805;DHT22;11064;47.102;15.452;2023-07-20T16:21:20;24.50;99.90
21805;DHT22;11064;47.102;15.452;2023-07-20T16:23:47;24.50;99.90
21805;DHT22;11064;47.102;15.452;2023-07-20T16:26:13;24.60;99.90
21805;DHT22;11064;47.102;15.452;2023-07-20T16:28:39;24.70;99.90
21805;DHT22;11064;47.102;15.452;2023-07-20T16:31:12;24.80;99.90
21805;DHT22;11064;47.102;15.452;2023-07-20T16:33:39;24.90;99.90
21805;DHT22;11064;47.102;15.452;2023-07-20T16:36:12;24.90;99.90
21805;DHT22;11064;47.102;15.452;2023-07-20T16:38:40;24.70;99.90
21805;DHT22;11064;47.102;15.452;2023-07-20T16:41:07;24.60;99.90
21805;DHT22;11064;47.102;15.452;2023-07-20T16:43:37;24.50;99.90
21805;DHT22;11064;47.102;15.452;2023-07-20T16:46:04;24.40;99.90
21805;DHT22;11064;47.102;15.452;2023-07-20T16:48:31;24.30;99.90
21805;DHT22;11064;47.102;15.452;2023-07-20T16:50:58;24.30;99.90
21805;DHT22;11064;47.102;15.452;2023-07-20T16:53:24;24.40;99.90
21805;DHT22;11064;47.102;15.452;2023-07-20T16:55:52;24.60;99.90
21805;DHT22;11064;47.102;15.452;2023-07-20T16:58:23;24.60;99.90
21805;DHT22;11064;47.102;15.452;2023-07-20T17:00:51;24.50;99.90
21805;DHT22;11064;47.102;15.452;2023-07-20T17:03:17;24.50;99.90
21805;DHT22;11064;47.102;15.452;2023-07-20T17:05:44;24.60;99.90
21805;DHT22;11064;47.102;15.452;2023-07-20T17:08:11;24.60;99.90
21805;DHT22;11064;47.102;15.452;2023-07-20T17:10:37;24.70;99.90
21805;DHT22;11064;47.102;15.452;2023-07-20T17:13:04;24.80;99.90
21805;DHT22;11064;47.102;15.452;2023-07-20T17:15:33;24.80;99.90
21805;DHT22;11064;47.102;15.452;2023-07-20T17:17:59;24.80;99.90
21805;DHT22;11064;47.102;15.452;2023-07-20T17:20:25;24.60;99.90
21805;DHT22;11064;47.102;15.452;2023-07-20T17:22:51;24.50;99.90
21805;DHT22;11064;47.102;15.452;2023-07-20T17:25:17;24.50;99.90
21805;DHT22;11064;47.102;15.452;2023-07-20T17:27:43;24.30;99.90
21805;DHT22;11064;47.102;15.452;2023-07-20T17:30:09;24.10;99.90
21805;DHT22;11064;47.102;15.452;2023-07-20T17:32:36;23.80;99.90
21805;DHT22;11064;47.102;15.452;2023-07-20T17:35:02;23.40;99.90
21805;DHT22;11064;47.102;15.452;2023-07-20T17:37:28;23.10;99.90
21805;DHT22;11064;47.102;15.452;2023-07-20T17:39:55;22.90;99.90
21805;DHT22;11064;47.102;15.452;2023-07-20T17:42:21;23.00;99.90
21805;DHT22;11064;47.102;15.452;2023-07-20T17:44:47;23.00;99.90
21805;DHT22;11064;47.102;15.452;2023-07-20T17:47:13;23.10;99.90
21805;DHT22;11064;47.102;15.452;2023-07-20T17:49:40;23.10;99.90
21805;DHT22;11064;47.102;15.452;2023-07-20T17:52:06;23.10;99.90
21805;DHT22;11064;47.102;15.452;2023-07-20T17:54:32;22.90;99.90
21805;DHT22;11064;47.102;15.452;2023-07-20T17:56:59;22.60;99.90
21805;DHT22;11064;47.102;15.452;2023-07-20T17:59:25;22.30;99.90
21805;DHT22;11064;47.102;15.452;2023-07-20T18:01:51;22.10;99.90
21805;DHT22;11064;47.102;15.452;2023-07-20T18:04:17;21.90;99.90
21805;DHT22;11064;47.102;15.452;2023-07-20T18:06:43;21.50;99.90
21805;DHT22;11064;47.102;15.452;2023-07-20T18:09:09;21.20;99.90
21805;DHT22;11064;47.102;15.452;2023-07-20T18:11:36;21.00;99.90
21805;DHT22;11064;47.102;15.452;2023-07-20T18:14:02;20.70;99.90
21805;DHT22;11064;47.102;15.452;2023-07-20T18:16:28;20.70;99.90
21805;DHT22;11064;47.102;15.452;2023-07-20T18:18:56;20.60;99.90
21805;DHT22;11064;47.102;15.452;2023-07-20T18:21:22;20.50;99.90
21805;DHT22;11064;47.102;15.452;2023-07-20T18:23:48;20.40;99.90
21805;DHT22;11064;47.102;15.452;2023-07-20T18:26:17;20.30;99.90
21805;DHT22;11064;47.102;15.452;2023-07-20T18:28:44;20.20;99.90
21805;DHT22;11064;47.102;15.452;2023-07-20T18:31:10;20.10;99.90
21805;DHT22;11064;47.102;15.452;2023-07-20T18:33:37;19.90;99.90
21805;DHT22;11064;47.102;15.452;2023-07-20T18:36:04;19.80;99.90
21805;DHT22;11064;47.102;15.452;2023-07-20T18:38:33;19.60;99.90
21805;DHT22;11064;47.102;15.452;2023-07-20T18:40:59;19.50;99.90
21805;DHT22;11064;47.102;15.452;2023-07-20T18:43:25;19.40;99.90
21805;DHT22;11064;47.102;15.452;2023-07-20T18:45:55;19.30;99.90
21805;DHT22;11064;47.102;15.452;2023-07-20T18:48:21;19.20;99.90
21805;DHT22;11064;47.102;15.452;2023-07-20T18:50:48;19.10;99.90
21805;DHT22;11064;47.102;15.452;2023-07-20T18:53:14;19.00;99.90
21805;DHT22;11064;47.102;15.452;2023-07-20T18:55:40;19.00;99.90
21805;DHT22;11064;47.102;15.452;2023-07-20T18:58:05;19.00;99.90
21805;DHT22;11064;47.102;15.452;2023-07-20T19:00:31;19.00;99.90
21805;DHT22;11064;47.102;15.452;2023-07-20T19:02:58;18.90;99.90
21805;DHT22;11064;47.102;15.452;2023-07-20T19:05:24;18.90;99.90
21805;DHT22;11064;47.102;15.452;2023-07-20T19:07:51;18.80;99.90
21805;DHT22;11064;47.102;15.452;2023-07-20T19:10:17;18.70;99.90
21805;DHT22;11064;47.102;15.452;2023-07-20T19:12:44;18.70;99.90
21805;DHT22;11064;47.102;15.452;2023-07-20T19:15:10;18.60;99.90
21805;DHT22;11064;47.102;15.452;2023-07-20T19:17:39;18.60;99.90
21805;DHT22;11064;47.102;15.452;2023-07-20T19:20:07;18.50;99.90
21805;DHT22;11064;47.102;15.452;2023-07-20T19:22:33;18.40;99.90
21805;DHT22;11064;47.102;15.452;2023-07-20T19:25:00;18.30;99.90
21805;DHT22;11064;47.102;15.452;2023-07-20T19:27:26;18.20;99.90
21805;DHT22;11064;47.102;15.452;2023-07-20T19:29:52;18.20;99.90